sensor_id;sensor_type;location;lat;lon;timestamp;pressure;altitude;pressure_sealevel;temperature;humidity
60433;BME280;46286;48.098;11.590;2023-01-13T00:00:57;95370.44;;;5.66;100.00
60433;BME280;46286;48.098;11.590;2023-01-13T00:03:23;95366.44;;;5.81;100.00
60433;BME280;46286;48.098;11.590;2023-01-13T00:05:48;95377.47;;;5.88;100.00
60433;BME280;46286;48.098;11.590;2023-01-13T00:08:14;95375.28;;;5.80;100.00
60433;BME280;46286;48.098;11.590;2023-01-13T00:10:39;95362.75;;;5.82;100.00
60433;BME280;46286;48.098;11.590;2023-01-13T00:13:05;95364.91;;;5.85;100.00
60433;BME280;46286;48.098;11.590;2023-01-13T00:15:31;95362.34;;;5.90;100.00
60433;BME280;46286;48.098;11.590;2023-01-13T00:17:57;95352.47;;;5.92;100.00
60433;BME280;46286;48.098;11.590;2023-01-13T00:20:23;95343.13;;;5.96;100.00
60433;BME280;46286;48.098;11.590;2023-01-13T00:22:48;95348.47;;;6.06;100.00
60433;BME280;46286;48.098;11.590;2023-01-13T00:25:14;95352.72;;;6.13;100.00
60433;BME280;46286;48.098;11.590;2023-01-13T00:27:39;95349.09;;;6.14;100.00
60433;BME280;46286;48.098;11.590;2023-01-13T00:30:06;95340.09;;;6.32;100.00
60433;BME280;46286;48.098;11.590;2023-01-13T00:32:32;95332.50;;;6.30;100.00
60433;BME280;46286;48.098;11.590;2023-01-13T00:34:58;95327.78;;;6.27;100.00
60433;BME280;46286;48.098;11.590;2023-01-13T00:37:24;95336.31;;;6.17;100.00
60433;BME280;46286;48.098;11.590;2023-01-13T00:39:50;95333.00;;;6.27;100.00
60433;BME280;46286;48.098;11.590;2023-01-13T00:42:16;95310.03;;;6.29;100.00
60433;BME280;46286;48.098;11.590;2023-01-13T00:45:00;95322.22;;;6.46;100.00
60433;BME280;46286;48.098;11.590;2023-01-13T00:47:26;95326.84;;;6.38;100.00
60433;BME280;46286;48.098;11.590;2023-01-13T00:49:52;95324.09;;;6.23;100.00
60433;BME280;46286;48.098;11.590;2023-01-13T00:52:17;95326.84;;;6.38;100.00
60433;BME280;46286;48.098;11.590;2023-01-13T00:54:43;95336.28;;;6.39;100.00
60433;BME280;46286;48.098;11.590;2023-01-13T00:57:08;95319.66;;;6.23;100.00
60433;BME280;46286;48.098;11.590;2023-01-13T00:59:34;95329.63;;;6.27;100.00
60433;BME280;46286;48.098;11.590;2023-01-13T01:01:59;95330.06;;;6.46;100.00
60433;BME280;46286;48.098;11.590;2023-01-13T01:04:25;95329.47;;;6.38;100.00
60433;BME280;46286;48.098;11.590;2023-01-13T01:06:50;95333.19;;;6.48;100.00
60433;BME280;46286;48.098;11.590;2023-01-13T01:09:16;95331.66;;;6.47;100.00
60433;BME280;46286;48.098;11.590;2023-01-13T01:11:43;95339.53;;;6.52;100.00
60433;BME280;46286;48.098;11.590;2023-01-13T01:14:10;95321.34;;;6.67;100.00
60433;BME280;46286;48.098;11.590;2023-01-13T01:16:37;95316.63;;;6.64;100.00
60433;BME280;46286;48.098;11.590;2023-01-13T01:19:04;95322.88;;;6.58;100.00
60433;BME280;46286;48.098;11.590;2023-01-13T01:21:29;95322.06;;;6.57;100.00
60433;BME280;46286;48.098;11.590;2023-01-13T01:23:58;95323.31;;;6.50;100.00
60433;BME280;46286;48.098;11.590;2023-01-13T01:26:25;95324.56;;;6.74;100.00
60433;BME280;46286;48.098;11.590;2023-01-13T01:28:52;95322.81;;;6.85;100.00
60433;BME280;46286;48.098;11.590;2023-01-13T01:31:29;95308.50;;;6.93;100.00
60433;BME280;46286;48.098;11.590;2023-01-13T01:33:59;95307.34;;;6.79;100.00
60433;BME280;46286;48.098;11.590;2023-01-13T01:36:26;95315.69;;;6.75;100.00
60433;BME280;46286;48.098;11.590;2023-01-13T01:38:55;95313.66;;;6.83;100.00
60433;BME280;46286;48.098;11.590;2023-01-13T01:41:23;95306.56;;;6.78;100.00
60433;BME280;46286;48.098;11.590;2023-01-13T01:46:39;95297.59;;;7.06;98.59
60433;BME280;46286;48.098;11.590;2023-01-13T01:51:43;95316.78;;;6.85;100.00
60433;BME280;46286;48.098;11.590;2023-01-13T01:54:12;95303.69;;;6.80;100.00
60433;BME280;46286;48.098;11.590;2023-01-13T01:56:40;95303.75;;;6.90;99.54
60433;BME280;46286;48.098;11.590;2023-01-13T01:59:08;95296.44;;;6.92;98.13
60433;BME280;46286;48.098;11.590;2023-01-13T02:01:34;95296.44;;;6.92;98.05
60433;BME280;46286;48.098;11.590;2023-01-13T02:04:11;95290.13;;;6.88;98.01
60433;BME280;46286;48.098;11.590;2023-01-13T02:06:39;95292.78;;;6.93;97.37
60433;BME280;46286;48.098;11.590;2023-01-13T02:09:05;95286.22;;;6.85;98.31
60433;BME280;46286;48.098;11.590;2023-01-13T02:11:33;95278.50;;;6.73;100.00
60433;BME280;46286;48.098;11.590;2023-01-13T02:14:21;95272.38;;;6.90;96.64
60433;BME280;46286;48.098;11.590;2023-01-13T02:17:05;95268.88;;;6.79;97.18
60433;BME280;46286;48.098;11.590;2023-01-13T02:32:25;95249.34;;;6.92;94.21
60433;BME280;46286;48.098;11.590;2023-01-13T02:37:30;95247.84;;;7.01;93.39
60433;BME280;46286;48.098;11.590;2023-01-13T02:42:52;95239.41;;;6.89;94.38
60433;BME280;46286;48.098;11.590;2023-01-13T02:45:49;95233.72;;;7.02;92.18
60433;BME280;46286;48.098;11.590;2023-01-13T02:48:19;95232.63;;;6.93;94.01
60433;BME280;46286;48.098;11.590;2023-01-13T02:50:50;95236.81;;;6.94;94.36
60433;BME280;46286;48.098;11.590;2023-01-13T02:53:26;95248.06;;;6.57;100.00
60433;BME280;46286;48.098;11.590;2023-01-13T02:55:55;95236.97;;;6.39;100.00
60433;BME280;46286;48.098;11.590;2023-01-13T02:58:26;95239.19;;;6.26;100.00
60433;BME280;46286;48.098;11.590;2023-01-13T03:00:52;95231.94;;;6.05;100.00
60433;BME280;46286;48.098;11.590;2023-01-13T03:03:18;95228.19;;;5.96;100.00
60433;BME280;46286;48.098;11.590;2023-01-13T03:05:45;95228.31;;;6.06;100.00
60433;BME280;46286;48.098;11.590;2023-01-13T03:10:45;95219.63;;;6.01;100.00
60433;BME280;46286;48.098;11.590;2023-01-13T03:13:20;95217.63;;;5.86;100.00
60433;BME280;46286;48.098;11.590;2023-01-13T03:18:45;95209.44;;;5.77;100.00
60433;BME280;46286;48.098;11.590;2023-01-13T03:21:21;95210.19;;;5.72;100.00
60433;BME280;46286;48.098;11.590;2023-01-13T03:26:42;95210.91;;;5.68;100.00
60433;BME280;46286;48.098;11.590;2023-01-13T03:32:12;95187.06;;;5.59;100.00
60433;BME280;46286;48.098;11.590;2023-01-13T03:34:46;95201.75;;;5.65;100.00
60433;BME280;46286;48.098;11.590;2023-01-13T03:37:15;95205.38;;;5.64;100.00
60433;BME280;46286;48.098;11.590;2023-01-13T03:39:47;95211.06;;;5.56;100.00
60433;BME280;46286;48.098;11.590;2023-01-13T03:42:18;95208.97;;;5.58;100.00
60433;BME280;46286;48.098;11.590;2023-01-13T03:44:51;95201.09;;;5.53;100.00
60433;BME280;46286;48.098;11.590;2023-01-13T03:50:17;95209.63;;;5.43;100.00
60433;BME280;46286;48.098;11.590;2023-01-13T03:52:47;95207.06;;;5.26;100.00
60433;BME280;46286;48.098;11.590;2023-01-13T03:55:26;95201.88;;;5.09;100.00
60433;BME280;46286;48.098;11.590;2023-01-13T03:58:27;95198.81;;;5.34;100.00
60433;BME280;46286;48.098;11.590;2023-01-13T04:01:08;95202.69;;;5.32;100.00
60433;BME280;46286;48.098;11.590;2023-01-13T04:04:02;95195.34;;;5.51;100.00
60433;BME280;46286;48.098;11.590;2023-01-13T04:06:33;95200.84;;;5.82;100.00
60433;BME280;46286;48.098;11.590;2023-01-13T04:12:00;95181.25;;;6.34;100.00
60433;BME280;46286;48.098;11.590;2023-01-13T04:14:27;95179.06;;;6.63;94.50
60433;BME280;46286;48.098;11.590;2023-01-13T04:16:54;95175.06;;;6.98;90.33
60433;BME280;46286;48.098;11.590;2023-01-13T04:19:20;95180.91;;;7.05;89.93
60433;BME280;46286;48.098;11.590;2023-01-13T04:21:46;95180.94;;;7.16;87.22
60433;BME280;46286;48.098;11.590;2023-01-13T04:24:11;95182.00;;;7.20;85.62
60433;BME280;46286;48.098;11.590;2023-01-13T04:26:37;95188.34;;;7.34;84.33
60433;BME280;46286;48.098;11.590;2023-01-13T04:29:02;95196.75;;;7.46;81.47
60433;BME280;46286;48.098;11.590;2023-01-13T04:31:28;95177.91;;;7.44;82.43
60433;BME280;46286;48.098;11.590;2023-01-13T04:33:53;95178.66;;;7.35;82.93
60433;BME280;46286;48.098;11.590;2023-01-13T04:36:19;95171.59;;;7.40;82.78
60433;BME280;46286;48.098;11.590;2023-01-13T04:38:49;95168.41;;;7.28;83.51
60433;BME280;46286;48.098;11.590;2023-01-13T04:41:15;95168.97;;;7.45;81.42
60433;BME280;46286;48.098;11.590;2023-01-13T04:43:40;95176.59;;;7.47;83.00
60433;BME280;46286;48.098;11.590;2023-01-13T04:46:06;95170.59;;;7.57;79.50
60433;BME280;46286;48.098;11.590;2023-01-13T04:48:31;95176.34;;;7.54;81.51
60433;BME280;46286;48.098;11.590;2023-01-13T04:50:57;95169.03;;;7.56;79.55
60433;BME280;46286;48.098;11.590;2023-01-13T04:53:22;95166.94;;;7.68;78.66
60433;BME280;46286;48.098;11.590;2023-01-13T04:55:48;95151.78;;;7.75;78.09
60433;BME280;46286;48.098;11.590;2023-01-13T04:58:14;95147.59;;;7.74;79.37
60433;BME280;46286;48.098;11.590;2023-01-13T05:00:40;95151.53;;;7.72;79.96
60433;BME280;46286;48.098;11.590;2023-01-13T05:03:05;95154.94;;;7.88;78.32
60433;BME280;46286;48.098;11.590;2023-01-13T05:05:31;95150.75;;;7.92;78.15
60433;BME280;46286;48.098;11.590;2023-01-13T05:07:56;95154.13;;;7.87;79.49
60433;BME280;46286;48.098;11.590;2023-01-13T05:10:22;95158.63;;;8.07;77.70
60433;BME280;46286;48.098;11.590;2023-01-13T05:12:47;95162.81;;;8.03;77.59
60433;BME280;46286;48.098;11.590;2023-01-13T05:15:32;95154.44;;;8.11;77.34
60433;BME280;46286;48.098;11.590;2023-01-13T05:18:16;95154.69;;;8.00;79.79
60433;BME280;46286;48.098;11.590;2023-01-13T05:20:44;95164.91;;;8.01;78.90
60433;BME280;46286;48.098;11.590;2023-01-13T05:23:09;95162.81;;;8.13;78.55
60433;BME280;46286;48.098;11.590;2023-01-13T05:25:53;95159.69;;;8.22;77.02
60433;BME280;46286;48.098;11.590;2023-01-13T05:28:19;95158.63;;;8.28;77.24
60433;BME280;46286;48.098;11.590;2023-01-13T05:30:46;95154.69;;;8.36;76.81
60433;BME280;46286;48.098;11.590;2023-01-13T05:33:15;95153.66;;;8.21;79.06
60433;BME280;46286;48.098;11.590;2023-01-13T05:35:43;95154.94;;;8.19;78.90
60433;BME280;46286;48.098;11.590;2023-01-13T05:38:10;95140.78;;;8.30;78.02
60433;BME280;46286;48.098;11.590;2023-01-13T05:40:39;95150.75;;;8.23;78.11
60433;BME280;46286;48.098;11.590;2023-01-13T05:43:23;95153.91;;;8.25;77.96
60433;BME280;46286;48.098;11.590;2023-01-13T05:45:52;95159.16;;;8.25;77.94
60433;BME280;46286;48.098;11.590;2023-01-13T05:48:19;95152.88;;;8.10;78.65
60433;BME280;46286;48.098;11.590;2023-01-13T05:50:46;95162.28;;;8.27;77.49
60433;BME280;46286;48.098;11.590;2023-01-13T05:53:11;95158.63;;;8.28;76.40
60433;BME280;46286;48.098;11.590;2023-01-13T05:55:39;95145.00;;;8.36;76.20
60433;BME280;46286;48.098;11.590;2023-01-13T05:58:05;95149.19;;;8.32;77.58
60433;BME280;46286;48.098;11.590;2023-01-13T06:00:31;95138.19;;;8.35;76.98
60433;BME280;46286;48.098;11.590;2023-01-13T06:02:57;95132.66;;;8.31;77.70
60433;BME280;46286;48.098;11.590;2023-01-13T06:05:23;95145.00;;;8.36;77.87
60433;BME280;46286;48.098;11.590;2023-01-13T06:07:48;95145.78;;;8.37;78.25
60433;BME280;46286;48.098;11.590;2023-01-13T06:10:16;95136.06;;;8.37;78.65
60433;BME280;46286;48.098;11.590;2023-01-13T06:12:41;95156.00;;;8.33;78.49
60433;BME280;46286;48.098;11.590;2023-01-13T06:15:07;95151.03;;;8.37;78.87
60433;BME280;46286;48.098;11.590;2023-01-13T06:17:33;95153.38;;;8.43;77.92
60433;BME280;46286;48.098;11.590;2023-01-13T06:19:58;95139.50;;;8.32;79.62
60433;BME280;46286;48.098;11.590;2023-01-13T06:22:27;95142.91;;;8.43;77.92
60433;BME280;46286;48.098;11.590;2023-01-13T06:24:55;95149.19;;;8.42;78.28
60433;BME280;46286;48.098;11.590;2023-01-13T06:27:21;95140.28;;;8.43;78.66
60433;BME280;46286;48.098;11.590;2023-01-13T06:29:47;95145.53;;;8.48;78.59
60433;BME280;46286;48.098;11.590;2023-01-13T06:32:18;95148.13;;;8.38;79.73
60433;BME280;46286;48.098;11.590;2023-01-13T06:34:53;95143.41;;;8.30;80.57
60433;BME280;46286;48.098;11.590;2023-01-13T06:37:23;95148.41;;;8.31;80.53
60433;BME280;46286;48.098;11.590;2023-01-13T06:39:51;95146.06;;;8.51;78.30
60433;BME280;46286;48.098;11.590;2023-01-13T06:42:21;95151.81;;;8.47;79.45
60433;BME280;46286;48.098;11.590;2023-01-13T06:45:06;95155.75;;;8.40;80.46
60433;BME280;46286;48.098;11.590;2023-01-13T06:47:31;95154.69;;;8.46;79.23
60433;BME280;46286;48.098;11.590;2023-01-13T06:49:57;95164.41;;;8.35;79.97
60433;BME280;46286;48.098;11.590;2023-01-13T06:52:24;95155.47;;;8.26;81.42
60433;BME280;46286;48.098;11.590;2023-01-13T06:54:51;95164.94;;;8.32;80.35
60433;BME280;46286;48.098;11.590;2023-01-13T06:57:17;95169.38;;;8.31;79.64
60433;BME280;46286;48.098;11.590;2023-01-13T06:59:43;95157.03;;;8.37;78.97
60433;BME280;46286;48.098;11.590;2023-01-13T07:02:08;95169.91;;;8.28;79.50
60433;BME280;46286;48.098;11.590;2023-01-13T07:04:34;95167.53;;;8.27;80.89
60433;BME280;46286;48.098;11.590;2023-01-13T07:06:59;95158.63;;;8.28;79.69
60433;BME280;46286;48.098;11.590;2023-01-13T07:09:25;95170.16;;;8.17;80.94
60433;BME280;46286;48.098;11.590;2023-01-13T07:11:50;95171.22;;;8.15;81.99
60433;BME280;46286;48.098;11.590;2023-01-13T07:14:17;95162.56;;;8.20;80.73
60433;BME280;46286;48.098;11.590;2023-01-13T07:17:01;95163.59;;;8.14;81.55
60433;BME280;46286;48.098;11.590;2023-01-13T07:19:27;95162.81;;;8.13;81.90
60433;BME280;46286;48.098;11.590;2023-01-13T07:21:52;95171.72;;;8.02;82.49
60433;BME280;46286;48.098;11.590;2023-01-13T07:24:18;95168.84;;;8.14;82.71
60433;BME280;46286;48.098;11.590;2023-01-13T07:26:44;95172.50;;;8.13;80.99
60433;BME280;46286;48.098;11.590;2023-01-13T07:29:11;95170.69;;;8.19;80.02
60433;BME280;46286;48.098;11.590;2023-01-13T07:31:36;95175.91;;;8.19;80.49
60433;BME280;46286;48.098;11.590;2023-01-13T07:34:04;95173.31;;;8.13;80.65
60433;BME280;46286;48.098;11.590;2023-01-13T07:36:29;95176.97;;;8.07;80.36
60433;BME280;46286;48.098;11.590;2023-01-13T07:38:55;95172.25;;;8.14;80.03
60433;BME280;46286;48.098;11.590;2023-01-13T07:41:21;95178.81;;;8.07;81.21
60433;BME280;46286;48.098;11.590;2023-01-13T07:44:05;95183.28;;;8.06;81.07
60433;BME280;46286;48.098;11.590;2023-01-13T07:46:32;95183.78;;;8.03;81.76
60433;BME280;46286;48.098;11.590;2023-01-13T07:48:59;95179.09;;;8.10;79.48
60433;BME280;46286;48.098;11.590;2023-01-13T07:51:24;95187.97;;;8.09;80.13
60433;BME280;46286;48.098;11.590;2023-01-13T07:53:50;95182.22;;;8.02;82.06
60433;BME280;46286;48.098;11.590;2023-01-13T07:56:15;95185.34;;;8.04;80.30
60433;BME280;46286;48.098;11.590;2023-01-13T07:58:41;95193.75;;;8.17;79.01
60433;BME280;46286;48.098;11.590;2023-01-13T08:01:08;95179.59;;;8.07;79.56
60433;BME280;46286;48.098;11.590;2023-01-13T08:03:34;95195.34;;;8.18;78.24
60433;BME280;46286;48.098;11.590;2023-01-13T08:06:00;95190.06;;;8.23;78.44
60433;BME280;46286;48.098;11.590;2023-01-13T08:08:26;95192.72;;;8.28;76.65
60433;BME280;46286;48.098;11.590;2023-01-13T08:10:51;95191.16;;;8.22;78.07
60433;BME280;46286;48.098;11.590;2023-01-13T08:13:18;95189.56;;;8.21;79.24
60433;BME280;46286;48.098;11.590;2023-01-13T08:15:49;95195.34;;;8.28;77.24
60433;BME280;46286;48.098;11.590;2023-01-13T08:18:16;95192.19;;;8.26;77.69
60433;BME280;46286;48.098;11.590;2023-01-13T08:20:44;95177.50;;;8.20;80.46
60433;BME280;46286;48.098;11.590;2023-01-13T08:23:09;95183.53;;;8.25;78.02
60433;BME280;46286;48.098;11.590;2023-01-13T08:25:35;95180.13;;;8.25;78.17
60433;BME280;46286;48.098;11.590;2023-01-13T08:28:00;95181.19;;;8.29;78.03
60433;BME280;46286;48.098;11.590;2023-01-13T08:30:26;95178.56;;;8.34;77.36
60433;BME280;46286;48.098;11.590;2023-01-13T08:32:53;95177.78;;;8.33;79.06
60433;BME280;46286;48.098;11.590;2023-01-13T08:35:20;95184.84;;;8.38;77.47
60433;BME280;46286;48.098;11.590;2023-01-13T08:37:46;95184.31;;;8.41;77.56
60433;BME280;46286;48.098;11.590;2023-01-13T08:40:14;95189.59;;;8.46;77.06
60433;BME280;46286;48.098;11.590;2023-01-13T08:42:40;95184.84;;;8.43;77.50
60433;BME280;46286;48.098;11.590;2023-01-13T08:45:06;95183.28;;;8.42;78.29
60433;BME280;46286;48.098;11.590;2023-01-13T08:47:32;95181.19;;;8.60;76.24
60433;BME280;46286;48.098;11.590;2023-01-13T08:49:58;95183.81;;;8.60;76.44
60433;BME280;46286;48.098;11.590;2023-01-13T08:52:24;95183.28;;;8.63;77.10
60433;BME280;46286;48.098;11.590;2023-01-13T08:54:49;95178.06;;;8.58;78.94
60433;BME280;46286;48.098;11.590;2023-01-13T08:57:15;95183.81;;;8.65;77.80
60433;BME280;46286;48.098;11.590;2023-01-13T08:59:43;95185.91;;;8.63;76.69
60433;BME280;46286;48.098;11.590;2023-01-13T09:02:18;95200.06;;;8.72;75.39
60433;BME280;46286;48.098;11.590;2023-01-13T09:04:44;95209.50;;;8.83;74.04
60433;BME280;46286;48.098;11.590;2023-01-13T09:07:10;95197.41;;;8.88;72.58
60433;BME280;46286;48.098;11.590;2023-01-13T09:09:36;95191.34;;;8.97;72.26
60433;BME280;46286;48.098;11.590;2023-01-13T09:12:02;95194.75;;;9.03;71.56
60433;BME280;46286;48.098;11.590;2023-01-13T09:14:47;95198.19;;;8.98;72.00
60433;BME280;46286;48.098;11.590;2023-01-13T09:17:13;95206.81;;;9.04;72.06
60433;BME280;46286;48.098;11.590;2023-01-13T09:19:39;95202.09;;;9.11;71.35
60433;BME280;46286;48.098;11.590;2023-01-13T09:22:05;95204.44;;;9.13;70.61
60433;BME280;46286;48.098;11.590;2023-01-13T09:24:31;95211.25;;;9.19;70.56
60433;BME280;46286;48.098;11.590;2023-01-13T09:26:56;95196.25;;;9.25;69.74
60433;BME280;46286;48.098;11.590;2023-01-13T09:29:22;95201.50;;;9.25;69.99
60433;BME280;46286;48.098;11.590;2023-01-13T09:31:48;95214.09;;;9.33;69.40
60433;BME280;46286;48.098;11.590;2023-01-13T09:34:15;95208.84;;;9.33;68.31
60433;BME280;46286;48.098;11.590;2023-01-13T09:37:00;95214.59;;;9.40;68.71
60433;BME280;46286;48.098;11.590;2023-01-13T09:39:26;95202.22;;;9.46;68.14
60433;BME280;46286;48.098;11.590;2023-01-13T09:41:57;95201.91;;;9.58;66.20
60433;BME280;46286;48.098;11.590;2023-01-13T09:44:57;95217.59;;;9.73;66.12
60433;BME280;46286;48.098;11.590;2023-01-13T09:47:56;95206.28;;;9.78;64.93
60433;BME280;46286;48.098;11.590;2023-01-13T09:53:04;95205.38;;;9.93;64.72
60433;BME280;46286;48.098;11.590;2023-01-13T09:55:33;95187.41;;;10.10;64.04
60433;BME280;46286;48.098;11.590;2023-01-13T09:58:06;95198.16;;;10.53;63.02
60433;BME280;46286;48.098;11.590;2023-01-13T10:00:39;95190.78;;;10.55;61.81
60433;BME280;46286;48.098;11.590;2023-01-13T10:03:25;95197.78;;;10.95;61.37
60433;BME280;46286;48.098;11.590;2023-01-13T10:08:46;95189.69;;;10.86;60.66
60433;BME280;46286;48.098;11.590;2023-01-13T10:11:22;95188.72;;;11.06;59.99
60433;BME280;46286;48.098;11.590;2023-01-13T10:14:11;95183.63;;;12.01;57.34
60433;BME280;46286;48.098;11.590;2023-01-13T10:16:44;95176.25;;;11.36;58.21
60433;BME280;46286;48.098;11.590;2023-01-13T10:24:43;95169.03;;;11.66;57.70
60433;BME280;46286;48.098;11.590;2023-01-13T10:29:50;95161.03;;;12.14;56.10
60433;BME280;46286;48.098;11.590;2023-01-13T10:32:15;95154.81;;;12.05;56.19
60433;BME280;46286;48.098;11.590;2023-01-13T10:34:49;95157.28;;;12.48;55.80
60433;BME280;46286;48.098;11.590;2023-01-13T10:37:26;95159.22;;;12.28;56.53
60433;BME280;46286;48.098;11.590;2023-01-13T10:39:56;95146.22;;;12.79;54.06
60433;BME280;46286;48.098;11.590;2023-01-13T10:42:24;95133.81;;;13.49;51.83
60433;BME280;46286;48.098;11.590;2023-01-13T10:44:55;95151.19;;;14.00;51.55
60433;BME280;46286;48.098;11.590;2023-01-13T10:52:29;95145.75;;;13.83;50.05
60433;BME280;46286;48.098;11.590;2023-01-13T10:54:55;95126.81;;;13.67;51.44
60433;BME280;46286;48.098;11.590;2023-01-13T10:57:26;95133.63;;;14.27;50.34
60433;BME280;46286;48.098;11.590;2023-01-13T10:59:52;95143.13;;;14.06;49.64
60433;BME280;46286;48.098;11.590;2023-01-13T11:02:30;95125.81;;;13.77;50.70
60433;BME280;46286;48.098;11.590;2023-01-13T11:04:58;95138.53;;;12.36;56.19
60433;BME280;46286;48.098;11.590;2023-01-13T11:07:55;95148.25;;;12.21;57.25
60433;BME280;46286;48.098;11.590;2023-01-13T11:10:30;95163.91;;;11.55;60.80
60433;BME280;46286;48.098;11.590;2023-01-13T11:13:10;95149.13;;;11.16;65.15
60433;BME280;46286;48.098;11.590;2023-01-13T11:15:43;95164.19;;;10.86;68.47
60433;BME280;46286;48.098;11.590;2023-01-13T11:21:22;95142.44;;;11.00;70.57
60433;BME280;46286;48.098;11.590;2023-01-13T11:26:46;95158.19;;;10.51;79.64
60433;BME280;46286;48.098;11.590;2023-01-13T11:29:29;95148.31;;;10.33;85.63
60433;BME280;46286;48.098;11.590;2023-01-13T11:32:09;95141.34;;;10.18;88.22
60433;BME280;46286;48.098;11.590;2023-01-13T11:34:38;95150.88;;;10.09;84.16
60433;BME280;46286;48.098;11.590;2023-01-13T11:37:20;95148.56;;;10.02;84.74
60433;BME280;46286;48.098;11.590;2023-01-13T11:42:39;95148.72;;;9.76;91.21
60433;BME280;46286;48.098;11.590;2023-01-13T11:45:19;95149.88;;;9.60;93.76
60433;BME280;46286;48.098;11.590;2023-01-13T11:47:48;95149.34;;;9.63;98.33
60433;BME280;46286;48.098;11.590;2023-01-13T11:50:31;95151.44;;;9.66;94.96
60433;BME280;46286;48.098;11.590;2023-01-13T12:03:51;95145.22;;;10.26;86.15
60433;BME280;46286;48.098;11.590;2023-01-13T12:11:53;95147.81;;;10.65;79.86
60433;BME280;46286;48.098;11.590;2023-01-13T12:19:48;95174.19;;;11.76;71.08
60433;BME280;46286;48.098;11.590;2023-01-13T12:22:19;95158.00;;;11.20;73.20
60433;BME280;46286;48.098;11.590;2023-01-13T12:24:56;95175.97;;;10.65;76.59
60433;BME280;46286;48.098;11.590;2023-01-13T12:30:22;95181.63;;;10.13;80.57
60433;BME280;46286;48.098;11.590;2023-01-13T12:32:52;95173.66;;;10.23;80.84
60433;BME280;46286;48.098;11.590;2023-01-13T12:35:38;95177.06;;;9.84;82.94
60433;BME280;46286;48.098;11.590;2023-01-13T12:38:16;95183.38;;;9.83;83.69
60433;BME280;46286;48.098;11.590;2023-01-13T12:43:49;95212.94;;;9.60;87.26
60433;BME280;46286;48.098;11.590;2023-01-13T12:46:50;95209.91;;;9.27;95.14
60433;BME280;46286;48.098;11.590;2023-01-13T12:49:32;95208.41;;;8.95;99.77
60433;BME280;46286;48.098;11.590;2023-01-13T12:52:03;95231.28;;;8.69;100.00
60433;BME280;46286;48.098;11.590;2023-01-13T12:59:43;95194.56;;;8.48;100.00
60433;BME280;46286;48.098;11.590;2023-01-13T13:05:28;95174.91;;;8.51;100.00
60433;BME280;46286;48.098;11.590;2023-01-13T13:08:18;95175.91;;;8.70;100.00
60433;BME280;46286;48.098;11.590;2023-01-13T13:13:45;95193.22;;;8.81;100.00
60433;BME280;46286;48.098;11.590;2023-01-13T13:18:50;95185.84;;;8.94;100.00
60433;BME280;46286;48.098;11.590;2023-01-13T13:21:16;95189.00;;;8.96;98.12
60433;BME280;46286;48.098;11.590;2023-01-13T13:23:44;95169.00;;;9.10;95.75
60433;BME280;46286;48.098;11.590;2023-01-13T13:26:29;95163.22;;;9.13;96.14
60433;BME280;46286;48.098;11.590;2023-01-13T13:36:52;95176.78;;;9.36;93.55
60433;BME280;46286;48.098;11.590;2023-01-13T13:39:25;95194.16;;;9.27;92.60
60433;BME280;46286;48.098;11.590;2023-01-13T13:42:20;95193.81;;;9.44;93.30
60433;BME280;46286;48.098;11.590;2023-01-13T13:45:21;95195.69;;;9.38;92.86
60433;BME280;46286;48.098;11.590;2023-01-13T13:48:26;95201.19;;;9.42;92.46
60433;BME280;46286;48.098;11.590;2023-01-13T13:50:55;95201.97;;;9.42;91.14
60433;BME280;46286;48.098;11.590;2023-01-13T13:53:35;95216.72;;;9.28;91.74
60433;BME280;46286;48.098;11.590;2023-01-13T13:56:06;95214.13;;;9.23;91.33
60433;BME280;46286;48.098;11.590;2023-01-13T13:58:39;95209.41;;;9.09;90.79
60433;BME280;46286;48.098;11.590;2023-01-13T14:01:05;95204.19;;;8.99;86.86
60433;BME280;46286;48.098;11.590;2023-01-13T14:03:33;95211.06;;;8.90;88.79
60433;BME280;46286;48.098;11.590;2023-01-13T14:06:04;95227.56;;;8.90;87.03
60433;BME280;46286;48.098;11.590;2023-01-13T14:08:35;95218.38;;;8.88;85.66
60433;BME280;46286;48.098;11.590;2023-01-13T14:11:24;95232.56;;;8.81;85.74
60433;BME280;46286;48.098;11.590;2023-01-13T14:14:00;95246.22;;;8.73;86.01
60433;BME280;46286;48.098;11.590;2023-01-13T14:16:26;95303.44;;;8.61;86.32
60433;BME280;46286;48.098;11.590;2023-01-13T14:18:52;95373.59;;;8.18;91.49
60433;BME280;46286;48.098;11.590;2023-01-13T14:21:24;95386.56;;;6.52;100.00
60433;BME280;46286;48.098;11.590;2023-01-13T14:24:14;95392.25;;;5.60;100.00
60433;BME280;46286;48.098;11.590;2023-01-13T14:26:40;95394.81;;;5.21;100.00
60433;BME280;46286;48.098;11.590;2023-01-13T14:29:11;95388.97;;;5.14;100.00
60433;BME280;46286;48.098;11.590;2023-01-13T14:31:38;95390.69;;;4.91;100.00
60433;BME280;46286;48.098;11.590;2023-01-13T14:34:05;95371.75;;;4.79;100.00
60433;BME280;46286;48.098;11.590;2023-01-13T14:44:02;95384.63;;;4.40;100.00
60433;BME280;46286;48.098;11.590;2023-01-13T14:46:42;95385.06;;;4.37;100.00
60433;BME280;46286;48.098;11.590;2023-01-13T14:49:32;95386.53;;;4.44;100.00
60433;BME280;46286;48.098;11.590;2023-01-13T14:52:09;95395.69;;;4.47;100.00
60433;BME280;46286;48.098;11.590;2023-01-13T14:57:40;95390.94;;;4.44;100.00
60433;BME280;46286;48.098;11.590;2023-01-13T15:10:24;95406.91;;;4.47;100.00
60433;BME280;46286;48.098;11.590;2023-01-13T15:12:53;95407.69;;;4.48;100.00
60433;BME280;46286;48.098;11.590;2023-01-13T15:17:47;95416.09;;;4.50;100.00
60433;BME280;46286;48.098;11.590;2023-01-13T15:20:13;95429.66;;;4.52;100.00
60433;BME280;46286;48.098;11.590;2023-01-13T15:22:39;95436.28;;;4.43;100.00
60433;BME280;46286;48.098;11.590;2023-01-13T15:25:05;95437.19;;;4.37;100.00
60433;BME280;46286;48.098;11.590;2023-01-13T15:27:31;95419.13;;;4.18;100.00
60433;BME280;46286;48.098;11.590;2023-01-13T15:29:56;95411.88;;;4.20;100.00
60433;BME280;46286;48.098;11.590;2023-01-13T15:32:22;95418.31;;;4.18;100.00